Dong Gui 5 — BMKF — position and weather

sailwx.info

Track history (hours):
 
Tides and Currents Weather Stations Pressure Air Temp Water Temp Dewpoint Dewpoint Depression Visibility Wind Speed Wind Dir Waves Ship Positions

Dong Gui 5

Last reported at 2016-May-11 08:03 UTC. Time now 2016-May-31 21:47 UTC.
Position N 22°54' E 113°22'.
Warning: this ship's position is 20 days out of date.

Length 62 m.

Type: Tanker. MMSI: 412500730.

Date/timePositionNaut miles runAvg speedWind from/ knotsBaromVisibWave heightAir tempDewpointWater temp
2016-May-11 08:03N 22°54' E 113°22'4 7.0
2016-May-11 07:30N 22°55' E 113°26'7 5.0
2016-May-11 06:10N 22°55' E 113°33'4 5.7
2016-May-11 05:33N 22°58' E 113°34'0 0.0
2016-May-11 04:33N 22°58' E 113°34'0 0.0
2016-May-11 03:28N 22°58' E 113°34'0 0.0
2016-May-11 02:32N 22°58' E 113°34'0 0.0
2016-May-11 01:30N 22°58' E 113°34'0 0.0
2016-May-11 00:32N 22°58' E 113°34'0 0.0
2016-May-10 23:33N 22°58' E 113°34'0 0.0
2016-May-10 22:31N 22°58' E 113°34'0 0.0
2016-May-10 21:33N 22°58' E 113°34'0 0.0
2016-May-10 20:32N 22°58' E 113°34'0 0.0
2016-May-10 19:31N 22°58' E 113°34'0 0.0
2016-May-10 18:33N 22°58' E 113°34'0 0.0
2016-May-10 17:34N 22°58' E 113°34'0 0.0
2016-May-10 16:33N 22°58' E 113°34'0 0.0
2016-May-10 15:30N 22°58' E 113°34'0 0.0
2016-May-10 14:33N 22°58' E 113°34'0 0.0
2016-May-10 13:33N 22°58' E 113°34'0 0.0
2016-May-10 12:33N 22°58' E 113°34'0 0.0
2016-May-10 11:33N 22°58' E 113°34'0 0.0
2016-May-10 10:32N 22°58' E 113°34'0 0.0
2016-May-10 09:33N 22°58' E 113°34'0 0.0
2016-May-10 08:30N 22°58' E 113°34'0 0.0
2016-May-10 07:33N 22°58' E 113°34'0 0.0
2016-May-10 06:31N 22°58' E 113°34'0 0.0
2016-May-10 05:28N 22°58' E 113°34'0 0.0
2016-May-10 04:29N 22°58' E 113°34'0 0.0
2016-May-10 03:32N 22°58' E 113°34'0 0.0
2016-May-10 02:33N 22°58' E 113°34'0 0.0
2016-May-10 01:32N 22°58' E 113°34'0 0.0
2016-May-10 00:33N 22°58' E 113°34'0 0.0
2016-May-09 23:32N 22°58' E 113°34'7 5.1
2016-May-09 22:11N 22°52' E 113°33'0 0.1
2016-May-09 21:33N 22°52' E 113°33'0 0.0
2016-May-09 20:30N 22°52' E 113°33'2 1.8
2016-May-09 19:19N 22°53' E 113°32'8 9.5
2016-May-09 18:25N 22°54' E 113°23'  
2016-May-05 23:29N 22°55' E 113°26'8 0.7
2016-May-05 11:17N 22°50' E 113°34'0 0.0
2016-May-05 10:12N 22°50' E 113°34'1 0.3
2016-May-05 06:06N 22°51' E 113°33'0 0.0
2016-May-05 05:30N 22°51' E 113°33'0 0.0
2016-May-05 04:29N 22°51' E 113°33'0 0.1
2016-May-05 03:33N 22°51' E 113°33'0 0.0
2016-May-05 02:13N 22°52' E 113°33'0 0.0
2016-May-05 01:04N 22°52' E 113°33'0 0.0
2016-May-05 00:29N 22°52' E 113°33'0 0.0
2016-May-04 23:15N 22°52' E 113°33'0 0.0
2016-May-04 21:09N 22°51' E 113°33'0 0.0
2016-May-04 19:20N 22°51' E 113°33'0 0.0
2016-May-04 18:33N 22°51' E 113°33'0 0.0
2016-May-04 17:23N 22°51' E 113°33'0 0.0
2016-May-04 15:26N 22°51' E 113°33'4 4.6
2016-May-04 14:32N 22°54' E 113°30'  
Track history (hours):
 
Tides and Currents Weather Stations Pressure Air Temp Water Temp Dewpoint Dewpoint Depression Visibility Wind Speed Wind Dir Waves Ship Positions

Dong Gui 5

Last reported at 2016-May-11 08:03 UTC. Time now 2016-May-31 21:47 UTC.
Position N 22°54' E 113°22'.
Warning: this ship's position is 20 days out of date.

Length 62 m.

Type: Tanker. MMSI: 412500730.

Date/timePositionNaut miles runAvg speedWind from/ knotsBaromVisibWave heightAir tempDewpointWater temp
2016-May-11 08:03N 22°54' E 113°22'4 7.0
2016-May-11 07:30N 22°55' E 113°26'7 5.0
2016-May-11 06:10N 22°55' E 113°33'4 5.7
2016-May-11 05:33N 22°58' E 113°34'0 0.0
2016-May-11 04:33N 22°58' E 113°34'0 0.0
2016-May-11 03:28N 22°58' E 113°34'0 0.0
2016-May-11 02:32N 22°58' E 113°34'0 0.0
2016-May-11 01:30N 22°58' E 113°34'0 0.0
2016-May-11 00:32N 22°58' E 113°34'0 0.0
2016-May-10 23:33N 22°58' E 113°34'0 0.0
2016-May-10 22:31N 22°58' E 113°34'0 0.0
2016-May-10 21:33N 22°58' E 113°34'0 0.0
2016-May-10 20:32N 22°58' E 113°34'0 0.0
2016-May-10 19:31N 22°58' E 113°34'0 0.0
2016-May-10 18:33N 22°58' E 113°34'0 0.0
2016-May-10 17:34N 22°58' E 113°34'0 0.0
2016-May-10 16:33N 22°58' E 113°34'0 0.0
2016-May-10 15:30N 22°58' E 113°34'0 0.0
2016-May-10 14:33N 22°58' E 113°34'0 0.0
2016-May-10 13:33N 22°58' E 113°34'0 0.0
2016-May-10 12:33N 22°58' E 113°34'0 0.0
2016-May-10 11:33N 22°58' E 113°34'0 0.0
2016-May-10 10:32N 22°58' E 113°34'0 0.0
2016-May-10 09:33N 22°58' E 113°34'0 0.0
2016-May-10 08:30N 22°58' E 113°34'0 0.0
2016-May-10 07:33N 22°58' E 113°34'0 0.0
2016-May-10 06:31N 22°58' E 113°34'0 0.0
2016-May-10 05:28N 22°58' E 113°34'0 0.0
2016-May-10 04:29N 22°58' E 113°34'0 0.0
2016-May-10 03:32N 22°58' E 113°34'0 0.0
2016-May-10 02:33N 22°58' E 113°34'0 0.0
2016-May-10 01:32N 22°58' E 113°34'0 0.0
2016-May-10 00:33N 22°58' E 113°34'0 0.0
2016-May-09 23:32N 22°58' E 113°34'7 5.1
2016-May-09 22:11N 22°52' E 113°33'0 0.1
2016-May-09 21:33N 22°52' E 113°33'0 0.0
2016-May-09 20:30N 22°52' E 113°33'2 1.8
2016-May-09 19:19N 22°53' E 113°32'8 9.5
2016-May-09 18:25N 22°54' E 113°23'  
2016-May-05 23:29N 22°55' E 113°26'8 0.7
2016-May-05 11:17N 22°50' E 113°34'0 0.0
2016-May-05 10:12N 22°50' E 113°34'1 0.3
2016-May-05 06:06N 22°51' E 113°33'0 0.0
2016-May-05 05:30N 22°51' E 113°33'0 0.0
2016-May-05 04:29N 22°51' E 113°33'0 0.1
2016-May-05 03:33N 22°51' E 113°33'0 0.0
2016-May-05 02:13N 22°52' E 113°33'0 0.0
2016-May-05 01:04N 22°52' E 113°33'0 0.0
2016-May-05 00:29N 22°52' E 113°33'0 0.0
2016-May-04 23:15N 22°52' E 113°33'0 0.0
2016-May-04 21:09N 22°51' E 113°33'0 0.0
2016-May-04 19:20N 22°51' E 113°33'0 0.0
2016-May-04 18:33N 22°51' E 113°33'0 0.0
2016-May-04 17:23N 22°51' E 113°33'0 0.0
2016-May-04 15:26N 22°51' E 113°33'4 4.6
2016-May-04 14:32N 22°54' E 113°30'  

Dump ship's entire track history